sensor_id;sensor_type;location;lat;lon;timestamp;P1;durP1;ratioP1;P2;durP2;ratioP2
8861;SDS011;4799;50.996;4.754;2022-08-05T00:01:14;7.27;;;6.00;;
8861;SDS011;4799;50.996;4.754;2022-08-05T00:03:41;6.60;;;6.00;;
8861;SDS011;4799;50.996;4.754;2022-08-05T00:06:07;9.90;;;6.13;;
8861;SDS011;4799;50.996;4.754;2022-08-05T00:08:34;6.20;;;5.60;;
8861;SDS011;4799;50.996;4.754;2022-08-05T00:11:02;7.33;;;5.57;;
8861;SDS011;4799;50.996;4.754;2022-08-05T00:13:34;7.37;;;6.10;;
8861;SDS011;4799;50.996;4.754;2022-08-05T00:16:01;6.77;;;6.17;;
8861;SDS011;4799;50.996;4.754;2022-08-05T00:18:27;8.00;;;6.60;;
8861;SDS011;4799;50.996;4.754;2022-08-05T00:20:53;7.30;;;6.60;;
8861;SDS011;4799;50.996;4.754;2022-08-05T00:23:20;7.30;;;6.60;;
8861;SDS011;4799;50.996;4.754;2022-08-05T00:25:46;7.77;;;6.50;;
8861;SDS011;4799;50.996;4.754;2022-08-05T00:28:12;8.30;;;7.00;;
8861;SDS011;4799;50.996;4.754;2022-08-05T00:30:39;7.53;;;6.73;;
8861;SDS011;4799;50.996;4.754;2022-08-05T00:33:04;7.37;;;6.60;;
8861;SDS011;4799;50.996;4.754;2022-08-05T00:35:30;7.93;;;6.43;;
8861;SDS011;4799;50.996;4.754;2022-08-05T00:37:56;8.10;;;6.50;;
8861;SDS011;4799;50.996;4.754;2022-08-05T00:40:23;9.33;;;6.30;;
8861;SDS011;4799;50.996;4.754;2022-08-05T00:42:50;7.00;;;6.23;;
8861;SDS011;4799;50.996;4.754;2022-08-05T00:45:15;8.80;;;6.27;;
8861;SDS011;4799;50.996;4.754;2022-08-05T00:47:41;7.80;;;6.90;;
8861;SDS011;4799;50.996;4.754;2022-08-05T00:50:07;7.13;;;6.30;;
8861;SDS011;4799;50.996;4.754;2022-08-05T00:52:34;7.50;;;6.57;;
8861;SDS011;4799;50.996;4.754;2022-08-05T00:55:01;7.17;;;6.47;;
8861;SDS011;4799;50.996;4.754;2022-08-05T00:57:27;7.00;;;6.30;;
8861;SDS011;4799;50.996;4.754;2022-08-05T00:59:53;8.23;;;6.80;;
8861;SDS011;4799;50.996;4.754;2022-08-05T01:02:19;9.90;;;7.60;;
8861;SDS011;4799;50.996;4.754;2022-08-05T01:04:44;8.57;;;7.63;;
8861;SDS011;4799;50.996;4.754;2022-08-05T01:07:10;8.37;;;7.03;;
8861;SDS011;4799;50.996;4.754;2022-08-05T01:09:36;8.33;;;6.77;;
8861;SDS011;4799;50.996;4.754;2022-08-05T01:12:03;7.90;;;6.93;;
8861;SDS011;4799;50.996;4.754;2022-08-05T01:20:15;9.40;;;8.30;;
8861;SDS011;4799;50.996;4.754;2022-08-05T01:31:22;9.33;;;8.07;;
8861;SDS011;4799;50.996;4.754;2022-08-05T01:36:44;8.90;;;8.07;;
8861;SDS011;4799;50.996;4.754;2022-08-05T01:39:12;10.73;;;7.80;;
8861;SDS011;4799;50.996;4.754;2022-08-05T01:41:41;7.83;;;7.10;;
8861;SDS011;4799;50.996;4.754;2022-08-05T01:44:07;9.90;;;8.20;;
8861;SDS011;4799;50.996;4.754;2022-08-05T01:46:35;11.10;;;8.40;;
8861;SDS011;4799;50.996;4.754;2022-08-05T01:49:02;8.70;;;7.60;;
8861;SDS011;4799;50.996;4.754;2022-08-05T01:51:30;8.73;;;7.40;;
8861;SDS011;4799;50.996;4.754;2022-08-05T01:53:59;8.00;;;7.20;;
8861;SDS011;4799;50.996;4.754;2022-08-05T01:56:29;9.13;;;8.23;;
8861;SDS011;4799;50.996;4.754;2022-08-05T01:58:59;9.00;;;7.93;;
8861;SDS011;4799;50.996;4.754;2022-08-05T02:01:28;9.17;;;8.33;;
8861;SDS011;4799;50.996;4.754;2022-08-05T02:03:56;10.37;;;8.87;;
8861;SDS011;4799;50.996;4.754;2022-08-05T02:06:25;8.97;;;8.17;;
8861;SDS011;4799;50.996;4.754;2022-08-05T02:08:51;9.17;;;7.93;;
8861;SDS011;4799;50.996;4.754;2022-08-05T02:11:17;9.30;;;8.20;;
8861;SDS011;4799;50.996;4.754;2022-08-05T02:13:52;9.37;;;8.47;;
8861;SDS011;4799;50.996;4.754;2022-08-05T02:16:31;10.23;;;8.17;;
8861;SDS011;4799;50.996;4.754;2022-08-05T02:22:25;9.40;;;8.40;;
8861;SDS011;4799;50.996;4.754;2022-08-05T02:24:51;10.87;;;8.13;;
8861;SDS011;4799;50.996;4.754;2022-08-05T02:27:20;8.13;;;7.07;;
8861;SDS011;4799;50.996;4.754;2022-08-05T02:29:47;7.90;;;7.17;;
8861;SDS011;4799;50.996;4.754;2022-08-05T02:32:14;8.57;;;7.67;;
8861;SDS011;4799;50.996;4.754;2022-08-05T02:34:44;10.27;;;8.13;;
8861;SDS011;4799;50.996;4.754;2022-08-05T02:37:10;9.93;;;8.23;;
8861;SDS011;4799;50.996;4.754;2022-08-05T02:39:38;8.70;;;7.83;;
8861;SDS011;4799;50.996;4.754;2022-08-05T02:42:05;10.07;;;9.17;;
8861;SDS011;4799;50.996;4.754;2022-08-05T02:44:33;10.43;;;8.13;;
8861;SDS011;4799;50.996;4.754;2022-08-05T02:47:00;8.53;;;7.73;;
8861;SDS011;4799;50.996;4.754;2022-08-05T02:49:33;8.47;;;7.60;;
8861;SDS011;4799;50.996;4.754;2022-08-05T02:52:00;8.53;;;7.60;;
8861;SDS011;4799;50.996;4.754;2022-08-05T02:54:27;9.43;;;7.83;;
8861;SDS011;4799;50.996;4.754;2022-08-05T02:56:54;8.83;;;7.97;;
8861;SDS011;4799;50.996;4.754;2022-08-05T02:59:21;11.47;;;8.70;;
8861;SDS011;4799;50.996;4.754;2022-08-05T03:01:50;9.33;;;7.97;;
8861;SDS011;4799;50.996;4.754;2022-08-05T03:04:22;10.57;;;8.03;;
8861;SDS011;4799;50.996;4.754;2022-08-05T03:06:48;11.73;;;9.13;;
8861;SDS011;4799;50.996;4.754;2022-08-05T03:09:14;11.07;;;9.67;;
8861;SDS011;4799;50.996;4.754;2022-08-05T03:11:40;10.10;;;9.00;;
8861;SDS011;4799;50.996;4.754;2022-08-05T03:14:08;9.23;;;8.43;;
8861;SDS011;4799;50.996;4.754;2022-08-05T03:16:33;9.93;;;9.00;;
8861;SDS011;4799;50.996;4.754;2022-08-05T03:18:59;9.87;;;8.77;;
8861;SDS011;4799;50.996;4.754;2022-08-05T03:21:25;11.03;;;9.93;;
8861;SDS011;4799;50.996;4.754;2022-08-05T03:23:51;10.33;;;9.23;;
8861;SDS011;4799;50.996;4.754;2022-08-05T03:26:17;13.50;;;10.33;;
8861;SDS011;4799;50.996;4.754;2022-08-05T03:28:43;11.43;;;10.23;;
8861;SDS011;4799;50.996;4.754;2022-08-05T03:31:10;10.93;;;9.50;;
8861;SDS011;4799;50.996;4.754;2022-08-05T03:33:36;12.67;;;10.47;;
8861;SDS011;4799;50.996;4.754;2022-08-05T03:36:03;12.67;;;10.53;;
8861;SDS011;4799;50.996;4.754;2022-08-05T03:38:29;12.07;;;10.80;;
8861;SDS011;4799;50.996;4.754;2022-08-05T03:40:55;13.50;;;11.27;;
8861;SDS011;4799;50.996;4.754;2022-08-05T03:43:21;14.03;;;11.60;;
8861;SDS011;4799;50.996;4.754;2022-08-05T03:45:50;13.10;;;10.60;;
8861;SDS011;4799;50.996;4.754;2022-08-05T03:48:18;12.07;;;10.80;;
8861;SDS011;4799;50.996;4.754;2022-08-05T03:50:52;11.97;;;10.73;;
8861;SDS011;4799;50.996;4.754;2022-08-05T03:53:33;12.83;;;11.47;;
8861;SDS011;4799;50.996;4.754;2022-08-05T03:58:36;12.77;;;11.10;;
8861;SDS011;4799;50.996;4.754;2022-08-05T04:01:05;12.27;;;10.97;;
8861;SDS011;4799;50.996;4.754;2022-08-05T04:03:33;12.00;;;10.80;;
8861;SDS011;4799;50.996;4.754;2022-08-05T04:06:02;11.97;;;10.77;;
8861;SDS011;4799;50.996;4.754;2022-08-05T04:08:30;13.30;;;10.33;;
8861;SDS011;4799;50.996;4.754;2022-08-05T04:10:58;14.10;;;10.83;;
8861;SDS011;4799;50.996;4.754;2022-08-05T04:13:25;12.20;;;10.80;;
8861;SDS011;4799;50.996;4.754;2022-08-05T04:15:52;12.23;;;10.97;;
8861;SDS011;4799;50.996;4.754;2022-08-05T04:18:19;15.77;;;11.27;;
8861;SDS011;4799;50.996;4.754;2022-08-05T04:20:51;16.00;;;11.30;;
8861;SDS011;4799;50.996;4.754;2022-08-05T04:23:19;15.20;;;10.87;;
8861;SDS011;4799;50.996;4.754;2022-08-05T04:25:47;13.10;;;10.40;;
8861;SDS011;4799;50.996;4.754;2022-08-05T04:28:13;12.63;;;9.93;;
8861;SDS011;4799;50.996;4.754;2022-08-05T04:30:39;14.27;;;10.47;;
8861;SDS011;4799;50.996;4.754;2022-08-05T04:33:04;13.20;;;9.73;;
8861;SDS011;4799;50.996;4.754;2022-08-05T04:35:30;12.27;;;10.03;;
8861;SDS011;4799;50.996;4.754;2022-08-05T04:37:57;12.13;;;10.23;;
8861;SDS011;4799;50.996;4.754;2022-08-05T04:40:23;13.57;;;10.27;;
8861;SDS011;4799;50.996;4.754;2022-08-05T04:42:48;12.70;;;10.20;;
8861;SDS011;4799;50.996;4.754;2022-08-05T04:45:14;11.73;;;9.80;;
8861;SDS011;4799;50.996;4.754;2022-08-05T04:47:40;10.90;;;9.67;;
8861;SDS011;4799;50.996;4.754;2022-08-05T04:50:06;11.77;;;9.67;;
8861;SDS011;4799;50.996;4.754;2022-08-05T04:52:33;12.43;;;10.17;;
8861;SDS011;4799;50.996;4.754;2022-08-05T04:54:58;11.60;;;10.40;;
8861;SDS011;4799;50.996;4.754;2022-08-05T04:57:25;14.13;;;10.13;;
8861;SDS011;4799;50.996;4.754;2022-08-05T04:59:51;12.83;;;10.13;;
8861;SDS011;4799;50.996;4.754;2022-08-05T05:02:16;16.57;;;10.80;;
8861;SDS011;4799;50.996;4.754;2022-08-05T05:04:42;12.37;;;10.50;;
8861;SDS011;4799;50.996;4.754;2022-08-05T05:07:08;11.97;;;9.77;;
8861;SDS011;4799;50.996;4.754;2022-08-05T05:09:33;12.40;;;10.10;;
8861;SDS011;4799;50.996;4.754;2022-08-05T05:11:59;10.80;;;9.60;;
8861;SDS011;4799;50.996;4.754;2022-08-05T05:14:25;13.20;;;10.37;;
8861;SDS011;4799;50.996;4.754;2022-08-05T05:16:51;14.30;;;10.13;;
8861;SDS011;4799;50.996;4.754;2022-08-05T05:19:17;12.30;;;10.53;;
8861;SDS011;4799;50.996;4.754;2022-08-05T05:21:43;12.93;;;10.17;;
8861;SDS011;4799;50.996;4.754;2022-08-05T05:24:09;12.50;;;10.40;;
8861;SDS011;4799;50.996;4.754;2022-08-05T05:26:34;11.37;;;10.23;;
8861;SDS011;4799;50.996;4.754;2022-08-05T05:29:00;12.17;;;10.10;;
8861;SDS011;4799;50.996;4.754;2022-08-05T05:31:26;14.23;;;10.10;;
8861;SDS011;4799;50.996;4.754;2022-08-05T05:33:52;12.83;;;10.37;;
8861;SDS011;4799;50.996;4.754;2022-08-05T05:36:17;13.13;;;10.47;;
8861;SDS011;4799;50.996;4.754;2022-08-05T05:38:43;13.77;;;9.87;;
8861;SDS011;4799;50.996;4.754;2022-08-05T05:41:09;15.47;;;9.87;;
8861;SDS011;4799;50.996;4.754;2022-08-05T05:43:35;15.27;;;10.50;;
8861;SDS011;4799;50.996;4.754;2022-08-05T05:46:00;12.30;;;9.90;;
8861;SDS011;4799;50.996;4.754;2022-08-05T05:48:26;12.10;;;9.90;;
8861;SDS011;4799;50.996;4.754;2022-08-05T05:50:52;11.20;;;10.10;;
8861;SDS011;4799;50.996;4.754;2022-08-05T05:53:17;9.43;;;8.53;;
8861;SDS011;4799;50.996;4.754;2022-08-05T05:55:44;10.33;;;8.70;;
8861;SDS011;4799;50.996;4.754;2022-08-05T05:58:10;11.07;;;9.30;;
8861;SDS011;4799;50.996;4.754;2022-08-05T06:00:35;12.23;;;9.37;;
8861;SDS011;4799;50.996;4.754;2022-08-05T06:03:01;10.47;;;9.00;;
8861;SDS011;4799;50.996;4.754;2022-08-05T06:05:27;11.20;;;8.70;;
8861;SDS011;4799;50.996;4.754;2022-08-05T06:07:53;10.67;;;9.67;;
8861;SDS011;4799;50.996;4.754;2022-08-05T06:10:19;9.33;;;8.37;;
8861;SDS011;4799;50.996;4.754;2022-08-05T06:12:44;10.20;;;8.43;;
8861;SDS011;4799;50.996;4.754;2022-08-05T06:15:11;11.57;;;8.33;;
8861;SDS011;4799;50.996;4.754;2022-08-05T06:17:36;8.97;;;8.07;;
8861;SDS011;4799;50.996;4.754;2022-08-05T06:20:03;10.90;;;8.77;;
8861;SDS011;4799;50.996;4.754;2022-08-05T06:22:30;11.80;;;8.70;;
8861;SDS011;4799;50.996;4.754;2022-08-05T06:24:57;11.80;;;8.80;;
8861;SDS011;4799;50.996;4.754;2022-08-05T06:27:23;9.67;;;8.30;;
8861;SDS011;4799;50.996;4.754;2022-08-05T06:29:49;12.43;;;9.30;;
8861;SDS011;4799;50.996;4.754;2022-08-05T06:32:15;9.90;;;8.47;;
8861;SDS011;4799;50.996;4.754;2022-08-05T06:34:41;9.93;;;8.90;;
8861;SDS011;4799;50.996;4.754;2022-08-05T06:37:07;11.93;;;8.77;;
8861;SDS011;4799;50.996;4.754;2022-08-05T06:39:33;9.47;;;8.40;;
8861;SDS011;4799;50.996;4.754;2022-08-05T06:41:59;9.70;;;8.43;;
8861;SDS011;4799;50.996;4.754;2022-08-05T06:44:26;9.97;;;8.47;;
8861;SDS011;4799;50.996;4.754;2022-08-05T06:46:53;10.30;;;8.23;;
8861;SDS011;4799;50.996;4.754;2022-08-05T06:49:19;10.43;;;8.20;;
8861;SDS011;4799;50.996;4.754;2022-08-05T06:51:45;8.90;;;8.10;;
8861;SDS011;4799;50.996;4.754;2022-08-05T06:54:11;8.53;;;7.47;;
8861;SDS011;4799;50.996;4.754;2022-08-05T06:56:37;9.60;;;8.00;;
8861;SDS011;4799;50.996;4.754;2022-08-05T06:59:03;8.47;;;7.63;;
8861;SDS011;4799;50.996;4.754;2022-08-05T07:01:30;8.70;;;7.67;;
8861;SDS011;4799;50.996;4.754;2022-08-05T07:03:55;8.63;;;7.40;;
8861;SDS011;4799;50.996;4.754;2022-08-05T07:06:21;8.77;;;7.20;;
8861;SDS011;4799;50.996;4.754;2022-08-05T07:08:47;13.50;;;7.43;;
8861;SDS011;4799;50.996;4.754;2022-08-05T07:11:13;9.70;;;7.27;;
8861;SDS011;4799;50.996;4.754;2022-08-05T07:13:39;7.63;;;6.70;;
8861;SDS011;4799;50.996;4.754;2022-08-05T07:16:23;7.47;;;6.57;;
8861;SDS011;4799;50.996;4.754;2022-08-05T07:19:07;8.93;;;6.33;;
8861;SDS011;4799;50.996;4.754;2022-08-05T07:21:33;8.23;;;6.80;;
8861;SDS011;4799;50.996;4.754;2022-08-05T07:23:59;9.23;;;6.47;;
8861;SDS011;4799;50.996;4.754;2022-08-05T07:26:25;8.33;;;6.33;;
8861;SDS011;4799;50.996;4.754;2022-08-05T07:28:50;10.07;;;6.53;;
8861;SDS011;4799;50.996;4.754;2022-08-05T07:31:16;6.93;;;5.80;;
8861;SDS011;4799;50.996;4.754;2022-08-05T07:33:42;9.10;;;6.27;;
8861;SDS011;4799;50.996;4.754;2022-08-05T07:36:08;7.77;;;5.63;;
8861;SDS011;4799;50.996;4.754;2022-08-05T07:38:34;7.80;;;5.77;;
8861;SDS011;4799;50.996;4.754;2022-08-05T07:41:05;7.63;;;5.50;;
8861;SDS011;4799;50.996;4.754;2022-08-05T07:43:33;6.17;;;5.37;;
8861;SDS011;4799;50.996;4.754;2022-08-05T07:45:58;6.57;;;5.97;;
8861;SDS011;4799;50.996;4.754;2022-08-05T07:48:24;10.70;;;5.90;;
8861;SDS011;4799;50.996;4.754;2022-08-05T07:50:50;7.60;;;5.73;;
8861;SDS011;4799;50.996;4.754;2022-08-05T07:53:16;6.83;;;5.03;;
8861;SDS011;4799;50.996;4.754;2022-08-05T07:55:42;8.80;;;5.70;;
8861;SDS011;4799;50.996;4.754;2022-08-05T07:58:07;6.97;;;5.43;;
8861;SDS011;4799;50.996;4.754;2022-08-05T08:00:33;7.17;;;5.27;;
8861;SDS011;4799;50.996;4.754;2022-08-05T08:02:59;6.43;;;5.10;;
8861;SDS011;4799;50.996;4.754;2022-08-05T08:05:25;7.83;;;5.50;;
8861;SDS011;4799;50.996;4.754;2022-08-05T08:07:51;8.13;;;5.23;;
8861;SDS011;4799;50.996;4.754;2022-08-05T08:10:19;7.40;;;5.00;;
8861;SDS011;4799;50.996;4.754;2022-08-05T08:12:45;8.07;;;5.10;;
8861;SDS011;4799;50.996;4.754;2022-08-05T08:15:11;6.23;;;4.83;;
8861;SDS011;4799;50.996;4.754;2022-08-05T08:17:37;5.93;;;4.77;;
8861;SDS011;4799;50.996;4.754;2022-08-05T08:20:03;7.73;;;4.50;;
8861;SDS011;4799;50.996;4.754;2022-08-05T08:22:30;5.40;;;4.40;;
8861;SDS011;4799;50.996;4.754;2022-08-05T08:24:56;6.80;;;3.93;;
8861;SDS011;4799;50.996;4.754;2022-08-05T08:27:22;6.77;;;4.30;;
8861;SDS011;4799;50.996;4.754;2022-08-05T08:29:48;5.47;;;3.70;;
8861;SDS011;4799;50.996;4.754;2022-08-05T08:32:14;7.83;;;3.80;;
8861;SDS011;4799;50.996;4.754;2022-08-05T08:34:39;6.20;;;3.57;;
8861;SDS011;4799;50.996;4.754;2022-08-05T08:37:05;5.07;;;3.20;;
8861;SDS011;4799;50.996;4.754;2022-08-05T08:39:31;7.23;;;3.40;;
8861;SDS011;4799;50.996;4.754;2022-08-05T08:41:58;5.30;;;3.13;;
8861;SDS011;4799;50.996;4.754;2022-08-05T08:44:28;4.23;;;3.20;;
8861;SDS011;4799;50.996;4.754;2022-08-05T08:46:55;4.20;;;3.07;;
8861;SDS011;4799;50.996;4.754;2022-08-05T08:49:21;5.13;;;3.17;;
8861;SDS011;4799;50.996;4.754;2022-08-05T08:51:52;6.57;;;3.03;;
8861;SDS011;4799;50.996;4.754;2022-08-05T08:54:23;7.03;;;3.00;;
8861;SDS011;4799;50.996;4.754;2022-08-05T08:56:49;4.47;;;2.90;;
8861;SDS011;4799;50.996;4.754;2022-08-05T08:59:19;5.97;;;2.70;;
8861;SDS011;4799;50.996;4.754;2022-08-05T09:01:48;4.63;;;2.50;;
8861;SDS011;4799;50.996;4.754;2022-08-05T09:04:15;4.27;;;2.20;;
8861;SDS011;4799;50.996;4.754;2022-08-05T09:06:41;4.53;;;2.30;;
8861;SDS011;4799;50.996;4.754;2022-08-05T09:09:07;3.90;;;2.27;;
8861;SDS011;4799;50.996;4.754;2022-08-05T09:11:33;6.20;;;2.13;;
8861;SDS011;4799;50.996;4.754;2022-08-05T09:14:00;5.30;;;2.20;;
8861;SDS011;4799;50.996;4.754;2022-08-05T09:16:26;2.83;;;2.07;;
8861;SDS011;4799;50.996;4.754;2022-08-05T09:18:52;5.23;;;2.20;;
8861;SDS011;4799;50.996;4.754;2022-08-05T09:21:18;3.53;;;2.40;;
8861;SDS011;4799;50.996;4.754;2022-08-05T09:23:46;5.13;;;2.40;;
8861;SDS011;4799;50.996;4.754;2022-08-05T09:26:27;3.50;;;2.40;;
8861;SDS011;4799;50.996;4.754;2022-08-05T09:28:53;8.73;;;2.47;;
8861;SDS011;4799;50.996;4.754;2022-08-05T09:31:23;4.07;;;2.30;;
8861;SDS011;4799;50.996;4.754;2022-08-05T09:33:54;3.90;;;2.50;;
8861;SDS011;4799;50.996;4.754;2022-08-05T09:36:22;4.93;;;2.50;;
8861;SDS011;4799;50.996;4.754;2022-08-05T09:38:56;4.53;;;2.87;;
8861;SDS011;4799;50.996;4.754;2022-08-05T09:41:23;4.50;;;2.70;;
8861;SDS011;4799;50.996;4.754;2022-08-05T09:43:49;4.13;;;3.00;;
8861;SDS011;4799;50.996;4.754;2022-08-05T09:46:29;4.40;;;3.00;;
8861;SDS011;4799;50.996;4.754;2022-08-05T09:48:56;6.43;;;2.77;;
8861;SDS011;4799;50.996;4.754;2022-08-05T09:51:30;5.50;;;2.50;;
8861;SDS011;4799;50.996;4.754;2022-08-05T09:54:01;3.67;;;1.87;;
8861;SDS011;4799;50.996;4.754;2022-08-05T09:56:31;3.23;;;2.10;;
8861;SDS011;4799;50.996;4.754;2022-08-05T09:59:03;6.50;;;2.30;;
8861;SDS011;4799;50.996;4.754;2022-08-05T10:01:32;3.50;;;1.83;;
8861;SDS011;4799;50.996;4.754;2022-08-05T10:04:01;3.70;;;1.60;;
8861;SDS011;4799;50.996;4.754;2022-08-05T10:06:30;1.97;;;1.53;;
8861;SDS011;4799;50.996;4.754;2022-08-05T10:09:19;2.70;;;1.70;;
8861;SDS011;4799;50.996;4.754;2022-08-05T10:11:47;3.60;;;1.70;;
8861;SDS011;4799;50.996;4.754;2022-08-05T10:14:25;2.40;;;1.80;;
8861;SDS011;4799;50.996;4.754;2022-08-05T10:16:53;3.70;;;1.73;;
8861;SDS011;4799;50.996;4.754;2022-08-05T10:19:21;2.33;;;1.70;;
8861;SDS011;4799;50.996;4.754;2022-08-05T10:21:48;2.63;;;1.53;;
8861;SDS011;4799;50.996;4.754;2022-08-05T10:24:15;2.60;;;1.50;;
8861;SDS011;4799;50.996;4.754;2022-08-05T10:26:43;3.00;;;1.70;;
8861;SDS011;4799;50.996;4.754;2022-08-05T10:29:11;3.97;;;1.70;;
8861;SDS011;4799;50.996;4.754;2022-08-05T10:31:37;3.87;;;1.60;;
8861;SDS011;4799;50.996;4.754;2022-08-05T10:34:06;3.87;;;1.90;;
8861;SDS011;4799;50.996;4.754;2022-08-05T10:36:37;4.37;;;1.70;;
8861;SDS011;4799;50.996;4.754;2022-08-05T10:39:05;2.53;;;1.60;;
8861;SDS011;4799;50.996;4.754;2022-08-05T10:41:35;3.20;;;1.50;;
8861;SDS011;4799;50.996;4.754;2022-08-05T10:44:11;2.00;;;1.33;;
8861;SDS011;4799;50.996;4.754;2022-08-05T10:46:48;2.10;;;1.47;;
8861;SDS011;4799;50.996;4.754;2022-08-05T10:49:18;2.37;;;1.63;;
8861;SDS011;4799;50.996;4.754;2022-08-05T10:51:45;1.40;;;1.27;;
8861;SDS011;4799;50.996;4.754;2022-08-05T10:54:21;1.87;;;1.27;;
8861;SDS011;4799;50.996;4.754;2022-08-05T10:56:49;1.67;;;1.30;;
8861;SDS011;4799;50.996;4.754;2022-08-05T10:59:18;3.87;;;1.50;;
8861;SDS011;4799;50.996;4.754;2022-08-05T11:02:07;2.90;;;1.70;;
8861;SDS011;4799;50.996;4.754;2022-08-05T11:04:45;3.73;;;1.67;;
8861;SDS011;4799;50.996;4.754;2022-08-05T11:07:15;2.80;;;1.57;;
8861;SDS011;4799;50.996;4.754;2022-08-05T11:17:32;3.07;;;1.50;;
8861;SDS011;4799;50.996;4.754;2022-08-05T11:20:03;2.63;;;1.30;;
8861;SDS011;4799;50.996;4.754;2022-08-05T11:22:46;5.53;;;1.47;;
8861;SDS011;4799;50.996;4.754;2022-08-05T11:36:02;2.13;;;1.20;;
8861;SDS011;4799;50.996;4.754;2022-08-05T11:43:30;3.13;;;1.33;;
8861;SDS011;4799;50.996;4.754;2022-08-05T11:45:57;6.23;;;1.20;;
8861;SDS011;4799;50.996;4.754;2022-08-05T11:48:24;3.07;;;1.17;;
8861;SDS011;4799;50.996;4.754;2022-08-05T11:50:51;2.00;;;1.20;;
8861;SDS011;4799;50.996;4.754;2022-08-05T11:53:18;1.77;;;1.23;;
8861;SDS011;4799;50.996;4.754;2022-08-05T11:55:58;1.90;;;1.30;;
8861;SDS011;4799;50.996;4.754;2022-08-05T11:58:27;1.87;;;1.10;;
8861;SDS011;4799;50.996;4.754;2022-08-05T12:01:02;3.23;;;1.30;;
8861;SDS011;4799;50.996;4.754;2022-08-05T12:06:10;4.87;;;1.17;;
8861;SDS011;4799;50.996;4.754;2022-08-05T12:08:56;2.67;;;1.27;;
8861;SDS011;4799;50.996;4.754;2022-08-05T12:11:27;3.40;;;1.20;;
8861;SDS011;4799;50.996;4.754;2022-08-05T12:13:55;2.73;;;1.17;;
8861;SDS011;4799;50.996;4.754;2022-08-05T12:16:26;2.10;;;1.10;;
8861;SDS011;4799;50.996;4.754;2022-08-05T12:18:53;3.17;;;1.10;;
8861;SDS011;4799;50.996;4.754;2022-08-05T12:21:21;3.53;;;1.23;;
8861;SDS011;4799;50.996;4.754;2022-08-05T12:23:52;1.87;;;1.00;;
8861;SDS011;4799;50.996;4.754;2022-08-05T12:26:38;3.20;;;1.30;;
8861;SDS011;4799;50.996;4.754;2022-08-05T12:29:06;4.00;;;1.47;;
8861;SDS011;4799;50.996;4.754;2022-08-05T12:31:34;2.03;;;1.23;;
8861;SDS011;4799;50.996;4.754;2022-08-05T12:34:01;4.60;;;1.10;;
8861;SDS011;4799;50.996;4.754;2022-08-05T12:36:29;1.97;;;1.13;;
8861;SDS011;4799;50.996;4.754;2022-08-05T12:38:55;4.40;;;1.30;;
8861;SDS011;4799;50.996;4.754;2022-08-05T12:41:22;2.10;;;1.30;;
8861;SDS011;4799;50.996;4.754;2022-08-05T12:43:55;3.27;;;1.27;;
8861;SDS011;4799;50.996;4.754;2022-08-05T12:46:31;4.57;;;1.23;;
8861;SDS011;4799;50.996;4.754;2022-08-05T12:48:59;4.63;;;1.40;;
8861;SDS011;4799;50.996;4.754;2022-08-05T12:54:23;2.53;;;1.23;;
8861;SDS011;4799;50.996;4.754;2022-08-05T12:56:55;2.90;;;1.30;;
8861;SDS011;4799;50.996;4.754;2022-08-05T12:59:29;2.07;;;1.20;;
8861;SDS011;4799;50.996;4.754;2022-08-05T13:02:07;3.23;;;1.10;;
8861;SDS011;4799;50.996;4.754;2022-08-05T13:04:37;1.73;;;1.03;;
8861;SDS011;4799;50.996;4.754;2022-08-05T13:07:06;3.60;;;1.23;;
8861;SDS011;4799;50.996;4.754;2022-08-05T13:09:38;2.63;;;1.03;;
8861;SDS011;4799;50.996;4.754;2022-08-05T13:12:06;2.30;;;0.83;;
8861;SDS011;4799;50.996;4.754;2022-08-05T13:14:38;1.33;;;0.90;;
8861;SDS011;4799;50.996;4.754;2022-08-05T13:17:09;3.37;;;1.10;;
8861;SDS011;4799;50.996;4.754;2022-08-05T13:19:56;3.80;;;1.20;;
8861;SDS011;4799;50.996;4.754;2022-08-05T13:22:28;2.13;;;0.90;;
8861;SDS011;4799;50.996;4.754;2022-08-05T13:24:54;2.97;;;1.10;;
8861;SDS011;4799;50.996;4.754;2022-08-05T13:27:26;3.10;;;0.80;;
8861;SDS011;4799;50.996;4.754;2022-08-05T13:29:57;1.50;;;1.00;;
8861;SDS011;4799;50.996;4.754;2022-08-05T13:32:23;2.10;;;0.80;;
8861;SDS011;4799;50.996;4.754;2022-08-05T13:34:50;2.40;;;0.87;;
8861;SDS011;4799;50.996;4.754;2022-08-05T13:37:17;0.90;;;0.70;;
8861;SDS011;4799;50.996;4.754;2022-08-05T13:39:43;3.30;;;1.00;;
8861;SDS011;4799;50.996;4.754;2022-08-05T13:42:09;3.10;;;0.90;;
8861;SDS011;4799;50.996;4.754;2022-08-05T13:44:35;2.87;;;1.00;;
8861;SDS011;4799;50.996;4.754;2022-08-05T13:47:01;1.13;;;0.87;;
8861;SDS011;4799;50.996;4.754;2022-08-05T13:49:27;2.43;;;1.10;;
8861;SDS011;4799;50.996;4.754;2022-08-05T13:51:53;3.17;;;1.00;;
8861;SDS011;4799;50.996;4.754;2022-08-05T13:54:18;1.80;;;1.00;;
8861;SDS011;4799;50.996;4.754;2022-08-05T13:56:44;2.07;;;1.07;;
8861;SDS011;4799;50.996;4.754;2022-08-05T13:59:10;1.83;;;1.00;;
8861;SDS011;4799;50.996;4.754;2022-08-05T14:01:37;2.90;;;0.90;;
8861;SDS011;4799;50.996;4.754;2022-08-05T14:04:03;0.70;;;0.70;;
8861;SDS011;4799;50.996;4.754;2022-08-05T14:06:47;4.23;;;1.00;;
8861;SDS011;4799;50.996;4.754;2022-08-05T14:09:13;2.20;;;0.90;;
8861;SDS011;4799;50.996;4.754;2022-08-05T14:11:39;3.77;;;1.00;;
8861;SDS011;4799;50.996;4.754;2022-08-05T14:14:08;2.67;;;0.97;;
8861;SDS011;4799;50.996;4.754;2022-08-05T14:16:34;4.40;;;1.10;;
8861;SDS011;4799;50.996;4.754;2022-08-05T14:19:00;2.37;;;0.93;;
8861;SDS011;4799;50.996;4.754;2022-08-05T14:21:26;2.90;;;1.00;;
8861;SDS011;4799;50.996;4.754;2022-08-05T14:23:51;2.70;;;1.00;;
8861;SDS011;4799;50.996;4.754;2022-08-05T14:26:17;1.53;;;1.00;;
8861;SDS011;4799;50.996;4.754;2022-08-05T14:28:43;2.77;;;0.90;;
8861;SDS011;4799;50.996;4.754;2022-08-05T14:31:09;1.80;;;1.07;;
8861;SDS011;4799;50.996;4.754;2022-08-05T14:33:35;2.03;;;0.80;;
8861;SDS011;4799;50.996;4.754;2022-08-05T14:36:01;3.73;;;0.97;;
8861;SDS011;4799;50.996;4.754;2022-08-05T14:38:28;1.80;;;0.90;;
8861;SDS011;4799;50.996;4.754;2022-08-05T14:40:54;5.60;;;1.27;;
8861;SDS011;4799;50.996;4.754;2022-08-05T14:43:20;2.73;;;0.90;;
8861;SDS011;4799;50.996;4.754;2022-08-05T14:45:46;2.53;;;0.80;;
8861;SDS011;4799;50.996;4.754;2022-08-05T14:48:12;1.53;;;0.90;;
8861;SDS011;4799;50.996;4.754;2022-08-05T14:50:37;2.40;;;0.80;;
8861;SDS011;4799;50.996;4.754;2022-08-05T14:53:03;1.60;;;0.83;;
8861;SDS011;4799;50.996;4.754;2022-08-05T14:55:29;2.63;;;1.10;;
8861;SDS011;4799;50.996;4.754;2022-08-05T14:57:55;2.70;;;0.90;;
8861;SDS011;4799;50.996;4.754;2022-08-05T15:00:21;3.53;;;1.00;;
8861;SDS011;4799;50.996;4.754;2022-08-05T15:02:47;1.73;;;0.90;;
8861;SDS011;4799;50.996;4.754;2022-08-05T15:05:13;1.30;;;0.90;;
8861;SDS011;4799;50.996;4.754;2022-08-05T15:07:39;1.03;;;0.80;;
8861;SDS011;4799;50.996;4.754;2022-08-05T15:10:05;3.33;;;0.87;;
8861;SDS011;4799;50.996;4.754;2022-08-05T15:12:31;1.47;;;0.93;;
8861;SDS011;4799;50.996;4.754;2022-08-05T15:14:57;2.90;;;0.93;;
8861;SDS011;4799;50.996;4.754;2022-08-05T15:17:23;4.00;;;1.07;;
8861;SDS011;4799;50.996;4.754;2022-08-05T15:19:49;3.93;;;1.20;;
8861;SDS011;4799;50.996;4.754;2022-08-05T15:22:15;2.07;;;1.00;;
8861;SDS011;4799;50.996;4.754;2022-08-05T15:24:41;2.63;;;0.90;;
8861;SDS011;4799;50.996;4.754;2022-08-05T15:27:08;2.53;;;0.90;;
8861;SDS011;4799;50.996;4.754;2022-08-05T15:29:34;2.07;;;1.07;;
8861;SDS011;4799;50.996;4.754;2022-08-05T15:32:00;2.63;;;1.00;;
8861;SDS011;4799;50.996;4.754;2022-08-05T15:34:25;3.53;;;0.93;;
8861;SDS011;4799;50.996;4.754;2022-08-05T15:36:51;2.30;;;0.90;;
8861;SDS011;4799;50.996;4.754;2022-08-05T15:39:17;1.93;;;0.80;;
8861;SDS011;4799;50.996;4.754;2022-08-05T15:41:43;1.27;;;0.90;;
8861;SDS011;4799;50.996;4.754;2022-08-05T15:44:08;3.53;;;1.27;;
8861;SDS011;4799;50.996;4.754;2022-08-05T15:46:34;1.57;;;1.00;;
8861;SDS011;4799;50.996;4.754;2022-08-05T15:49:00;1.47;;;0.90;;
8861;SDS011;4799;50.996;4.754;2022-08-05T15:51:26;2.10;;;1.10;;
8861;SDS011;4799;50.996;4.754;2022-08-05T15:53:53;2.73;;;0.90;;
8861;SDS011;4799;50.996;4.754;2022-08-05T15:56:19;2.53;;;1.10;;
8861;SDS011;4799;50.996;4.754;2022-08-05T15:58:44;2.20;;;0.90;;
8861;SDS011;4799;50.996;4.754;2022-08-05T16:01:11;1.90;;;0.97;;
8861;SDS011;4799;50.996;4.754;2022-08-05T16:03:41;2.20;;;0.80;;
8861;SDS011;4799;50.996;4.754;2022-08-05T16:06:08;4.63;;;1.00;;